Greenville Downtown Airport Greenville US
ICAO: KGMU
IATA: GMU
Category: Medium
Scheduled Services: No

Elevation: 1048 ft
TransAlt. 18000 ft.

Airport Communications:
GREER APP/DEP:118.8
ASOS:127.075
CTAF:119.9
GND:121.25
TWR:119.9
UNICOM:122.95

KGMU Zoom In..

If you have problems with the map follow the link
https://www.worldairports.se/pages/airport.php?
ICAO=KGMU

Runways:

(A) RW 01 length 5393 ft width 100 ft
ILS 109.70 / hdg 6

(B) RW 10 length 4000 ft width 80 ft
---- / hdg 96

(C) RW 19 length 5393 ft width 100 ft
---- / hdg 186

(D) RW 28 length 4000 ft width 80 ft
---- / hdg 276

Location; KGMU
Day. 18 / Time. 11.53 Zulu
* Altimeter: 30.50
* Temperature: 04° c. 39.2°f.
* Wind from: 050° Speed 04 kn.
Dewpoint: -04° c.
Visibility: 10 Statute Miles.
Clouds: Overcast 3700 ft.

KGMU 181153Z 05004KT 10SM OVC037 04/M04 A3050 RMK AO2 SLP331 T00391044 10050 20039 56016


Wind From 050°
Speed 04 kn.

 
 
jpsmedia worldairports.se 2020   terms of use